createdAt,value
2023-01-04T00:01:17.602Z,9.33
2023-01-04T00:03:44.755Z,9.23
2023-01-04T00:06:13.041Z,8.53
2023-01-04T00:08:40.700Z,7.63
2023-01-04T00:11:13.389Z,7.27
2023-01-04T00:13:40.204Z,8.83
2023-01-04T00:16:09.353Z,10.60
2023-01-04T00:18:37.787Z,10.40
2023-01-04T00:21:13.546Z,8.77
2023-01-04T00:23:41.711Z,8.10
2023-01-04T00:26:15.449Z,7.60
2023-01-04T00:28:51.794Z,7.30
2023-01-04T00:31:21.198Z,7.93
2023-01-04T00:33:47.818Z,8.10
2023-01-04T00:36:15.307Z,8.23
2023-01-04T00:38:42.828Z,9.00
2023-01-04T00:41:28.330Z,8.80
2023-01-04T00:44:03.636Z,8.03
2023-01-04T00:46:32.979Z,7.13
2023-01-04T00:49:00.645Z,7.07
2023-01-04T00:51:29.034Z,9.70
2023-01-04T00:53:55.706Z,7.80
2023-01-04T00:56:22.201Z,9.33
2023-01-04T00:58:50.148Z,8.27
2023-01-04T01:01:16.665Z,10.13
2023-01-04T01:03:44.766Z,10.60
2023-01-04T01:06:12.686Z,9.50
2023-01-04T01:08:40.414Z,8.10
2023-01-04T01:11:09.921Z,9.10
2023-01-04T01:13:37.363Z,10.00
2023-01-04T01:16:06.596Z,9.33
2023-01-04T01:18:38.397Z,8.43
2023-01-04T01:21:09.523Z,8.13
2023-01-04T01:23:36.080Z,8.70
2023-01-04T01:26:07.062Z,7.30
2023-01-04T01:28:43.089Z,7.70
2023-01-04T01:31:15.351Z,7.20
2023-01-04T01:33:44.045Z,7.67
2023-01-04T01:36:11.672Z,8.07
2023-01-04T01:38:38.893Z,7.87
2023-01-04T01:41:06.376Z,7.13
2023-01-04T01:43:56.933Z,6.30
2023-01-04T01:46:29.630Z,6.93
2023-01-04T01:49:00.230Z,6.47
2023-01-04T01:51:28.352Z,6.23
2023-01-04T01:53:59.959Z,7.10
2023-01-04T01:56:27.654Z,6.97
2023-01-04T01:58:55.993Z,5.80
2023-01-04T02:01:22.589Z,5.53
2023-01-04T02:03:49.275Z,5.47
2023-01-04T02:06:22.095Z,6.40
2023-01-04T02:08:49.020Z,5.57
2023-01-04T02:11:16.721Z,4.50
2023-01-04T02:14:02.441Z,5.03
2023-01-04T02:16:54.337Z,4.83
2023-01-04T02:19:42.608Z,4.70
2023-01-04T02:22:38.765Z,6.30
2023-01-04T02:25:05.266Z,5.00
2023-01-04T02:28:03.813Z,5.13
2023-01-04T02:30:45.391Z,4.47
2023-01-04T02:33:40.047Z,4.63
2023-01-04T02:36:16.647Z,3.97
2023-01-04T02:38:49.240Z,4.40
2023-01-04T02:41:23.595Z,3.97
2023-01-04T02:44:18.305Z,4.67
2023-01-04T02:46:51.357Z,4.63
2023-01-04T02:49:36.633Z,4.87
2023-01-04T02:52:03.146Z,3.60
2023-01-04T02:54:32.433Z,5.20
2023-01-04T02:57:13.519Z,5.07
2023-01-04T02:59:47.529Z,4.60
2023-01-04T03:02:51.189Z,3.77
2023-01-04T03:06:04.469Z,4.43
2023-01-04T03:08:37.617Z,4.07
2023-01-04T03:11:30.224Z,4.07
2023-01-04T03:14:31.433Z,3.63
2023-01-04T03:16:56.108Z,5.00
2023-01-04T03:19:42.933Z,3.67
2023-01-04T03:22:31.127Z,6.17
2023-01-04T03:25:18.127Z,4.23
2023-01-04T03:28:05.832Z,3.60
2023-01-04T03:30:53.970Z,3.70
2023-01-04T03:33:39.194Z,4.40
2023-01-04T03:36:15.484Z,3.67
2023-01-04T03:39:08.998Z,4.20
2023-01-04T03:42:02.697Z,3.13
2023-01-04T03:44:51.711Z,3.40
2023-01-04T03:47:42.627Z,3.20
2023-01-04T03:50:22.064Z,3.33
2023-01-04T03:52:50.139Z,3.37
2023-01-04T03:55:18.059Z,3.60
2023-01-04T03:57:46.075Z,4.30
2023-01-04T04:00:17.258Z,3.63
2023-01-04T04:02:47.494Z,3.60
2023-01-04T04:05:36.609Z,4.10
2023-01-04T04:08:22.427Z,3.73
2023-01-04T04:10:53.141Z,3.53
2023-01-04T04:13:19.926Z,3.53
2023-01-04T04:15:46.523Z,4.20
2023-01-04T04:18:13.025Z,4.10
2023-01-04T04:20:41.070Z,3.80
2023-01-04T04:23:09.710Z,4.77
2023-01-04T04:25:36.595Z,3.47
2023-01-04T04:28:03.773Z,3.03
2023-01-04T04:30:30.266Z,3.80
2023-01-04T04:32:57.400Z,3.70
2023-01-04T04:35:24.453Z,5.10
2023-01-04T04:37:50.909Z,5.00
2023-01-04T04:40:38.211Z,4.70
2023-01-04T04:43:08.094Z,5.40
2023-01-04T04:45:36.368Z,3.90
2023-01-04T04:48:02.933Z,3.90
2023-01-04T04:50:29.584Z,3.47
2023-01-04T04:52:56.631Z,3.30
2023-01-04T04:55:23.304Z,4.13
2023-01-04T04:57:49.927Z,3.60
2023-01-04T05:00:16.743Z,3.20
2023-01-04T05:02:43.460Z,3.70
2023-01-04T05:05:10.153Z,3.90
2023-01-04T05:07:36.737Z,3.23
2023-01-04T05:10:03.567Z,2.83
2023-01-04T05:12:51.778Z,3.20
2023-01-04T05:15:22.469Z,3.43
2023-01-04T05:17:48.946Z,3.40
2023-01-04T05:20:15.503Z,3.80
2023-01-04T05:22:43.567Z,3.70
2023-01-04T05:25:10.165Z,3.60
2023-01-04T05:27:36.917Z,2.60
2023-01-04T05:30:23.432Z,3.10
2023-01-04T05:32:50.344Z,3.23
2023-01-04T05:35:17.010Z,3.50
2023-01-04T05:37:43.618Z,4.13
2023-01-04T05:40:10.439Z,3.30
2023-01-04T05:42:37.034Z,2.63
2023-01-04T05:45:04.031Z,3.00
2023-01-04T05:47:30.665Z,3.13
2023-01-04T05:49:58.739Z,2.80
2023-01-04T05:52:26.837Z,3.60
2023-01-04T05:54:53.411Z,4.37
2023-01-04T05:57:20.105Z,4.93
2023-01-04T05:59:47.809Z,6.30
2023-01-04T06:02:18.721Z,5.50
2023-01-04T06:04:45.617Z,3.90
2023-01-04T06:07:12.207Z,4.27
2023-01-04T06:09:39.591Z,4.50
2023-01-04T06:12:07.395Z,3.83
2023-01-04T06:14:36.566Z,3.77
2023-01-04T06:17:03.659Z,4.67
2023-01-04T06:19:30.304Z,4.13
2023-01-04T06:21:57.113Z,5.23
2023-01-04T06:24:25.926Z,4.70
2023-01-04T06:26:52.676Z,5.70
2023-01-04T06:29:19.241Z,5.60
2023-01-04T06:31:48.244Z,6.50
2023-01-04T06:34:15.097Z,5.80
2023-01-04T06:36:41.909Z,5.67
2023-01-04T06:39:08.769Z,4.70
2023-01-04T06:41:35.390Z,6.30
2023-01-04T06:44:02.832Z,5.63
2023-01-04T06:46:29.383Z,5.00
2023-01-04T06:48:56.153Z,4.63
2023-01-04T06:51:22.972Z,5.37
2023-01-04T06:53:50.050Z,5.23
2023-01-04T06:56:17.831Z,5.27
2023-01-04T06:58:44.773Z,5.43
2023-01-04T07:01:11.584Z,5.10
2023-01-04T07:03:38.846Z,3.60
2023-01-04T07:06:08.674Z,3.63
2023-01-04T07:08:35.511Z,3.80
2023-01-04T07:11:02.529Z,4.50
2023-01-04T07:13:29.253Z,4.40
2023-01-04T07:15:57.409Z,5.00
2023-01-04T07:18:24.010Z,4.40
2023-01-04T07:20:52.537Z,5.20
2023-01-04T07:23:19.284Z,4.97
2023-01-04T07:25:45.790Z,5.50
2023-01-04T07:28:12.270Z,4.10
2023-01-04T07:30:38.851Z,5.30
2023-01-04T07:33:06.824Z,5.20
2023-01-04T07:35:33.774Z,3.90
2023-01-04T07:38:00.355Z,4.33
2023-01-04T07:40:28.898Z,3.60
2023-01-04T07:43:03.133Z,4.40
2023-01-04T07:45:30.872Z,5.10
2023-01-04T07:47:58.878Z,5.90
2023-01-04T07:50:25.479Z,13.60
2023-01-04T07:52:52.056Z,14.23
2023-01-04T07:55:19.103Z,8.87
2023-01-04T07:57:48.734Z,8.00
2023-01-04T08:00:16.046Z,6.37
2023-01-04T08:02:42.690Z,5.00
2023-01-04T08:05:09.702Z,8.63
2023-01-04T08:07:36.282Z,6.80
2023-01-04T08:10:02.887Z,7.07
2023-01-04T08:12:30.971Z,4.43
2023-01-04T08:14:58.091Z,5.23
2023-01-04T08:17:25.148Z,5.20
2023-01-04T08:19:51.977Z,4.50
2023-01-04T08:22:18.984Z,4.10
2023-01-04T08:24:46.739Z,4.53
2023-01-04T08:27:13.661Z,3.83
2023-01-04T08:29:41.693Z,4.50
2023-01-04T08:32:08.627Z,4.23
2023-01-04T08:34:36.377Z,4.53
2023-01-04T08:37:04.367Z,4.10
2023-01-04T08:39:35.314Z,4.97
2023-01-04T08:42:18.018Z,4.73
2023-01-04T08:44:47.265Z,5.30
2023-01-04T08:47:15.690Z,4.10
2023-01-04T08:49:43.425Z,5.90
2023-01-04T08:52:11.881Z,4.70
2023-01-04T08:54:38.694Z,3.10
2023-01-04T08:57:05.208Z,4.60
2023-01-04T08:59:33.393Z,4.40
2023-01-04T09:02:05.997Z,3.83
2023-01-04T09:04:33.028Z,4.17
2023-01-04T09:06:59.542Z,4.20
2023-01-04T09:09:26.071Z,4.70
2023-01-04T09:11:53.472Z,5.70
2023-01-04T09:14:20.647Z,4.80
2023-01-04T09:16:47.295Z,5.73
2023-01-04T09:19:19.696Z,3.67
2023-01-04T09:21:48.439Z,4.13
2023-01-04T09:24:15.045Z,4.33
2023-01-04T09:26:43.410Z,4.57
2023-01-04T09:29:11.285Z,4.10
2023-01-04T09:31:38.665Z,3.73
2023-01-04T09:34:17.302Z,3.90
2023-01-04T09:36:49.420Z,4.50
2023-01-04T09:39:23.153Z,4.90
2023-01-04T09:42:04.178Z,4.03
2023-01-04T09:47:43.909Z,3.93
2023-01-04T09:50:17.491Z,4.13
2023-01-04T09:52:52.438Z,3.53
2023-01-04T09:55:38.172Z,3.80
2023-01-04T09:58:27.264Z,3.10
2023-01-04T10:01:05.066Z,3.50
2023-01-04T10:03:38.688Z,3.53
2023-01-04T10:06:12.241Z,3.40
2023-01-04T10:08:43.621Z,4.07
2023-01-04T10:11:19.688Z,2.93
2023-01-04T10:13:57.743Z,3.80
2023-01-04T10:23:10.257Z,3.07
2023-01-04T10:25:39.745Z,2.97
2023-01-04T10:28:32.981Z,3.30
2023-01-04T10:31:39.741Z,2.93
2023-01-04T10:34:16.864Z,3.40
2023-01-04T10:36:45.987Z,3.00
2023-01-04T10:39:16.724Z,3.73
2023-01-04T10:41:52.384Z,3.70
2023-01-04T10:44:36.639Z,3.50
2023-01-04T10:47:09.149Z,3.70
2023-01-04T10:50:01.678Z,2.97
2023-01-04T10:52:30.732Z,3.00
2023-01-04T10:55:10.360Z,3.23
2023-01-04T10:57:49.066Z,3.33
2023-01-04T11:00:43.005Z,2.80
2023-01-04T11:03:17.899Z,3.17
2023-01-04T11:05:51.929Z,2.87
2023-01-04T11:08:40.609Z,4.03
2023-01-04T11:11:13.611Z,2.57
2023-01-04T11:13:40.539Z,3.83
2023-01-04T11:16:08.076Z,2.87
2023-01-04T11:18:38.268Z,3.50
2023-01-04T11:21:09.084Z,2.97
2023-01-04T11:23:35.684Z,2.67
2023-01-04T11:26:16.093Z,2.70
2023-01-04T11:28:58.304Z,2.57
2023-01-04T11:31:32.094Z,3.23
2023-01-04T11:34:00.909Z,2.90
2023-01-04T11:36:39.915Z,2.73
2023-01-04T11:39:17.511Z,3.00
2023-01-04T11:42:05.026Z,2.97
2023-01-04T11:44:36.455Z,2.60
2023-01-04T11:47:09.027Z,2.40
2023-01-04T11:49:36.871Z,2.60
2023-01-04T11:52:05.024Z,2.37
2023-01-04T11:54:31.771Z,3.10
2023-01-04T11:57:12.569Z,3.57
2023-01-04T11:59:39.677Z,3.60
2023-01-04T12:05:29.752Z,2.93
2023-01-04T12:07:58.394Z,2.50
2023-01-04T12:10:27.903Z,2.67
2023-01-04T12:12:56.701Z,2.40
2023-01-04T12:15:36.324Z,3.10
2023-01-04T12:18:08.618Z,2.50
2023-01-04T12:20:37.216Z,2.67
2023-01-04T12:23:04.109Z,3.23
2023-01-04T12:25:43.783Z,3.20
2023-01-04T12:28:40.792Z,2.83
2023-01-04T12:31:20.529Z,2.93
2023-01-04T12:33:57.966Z,4.60
2023-01-04T12:36:46.103Z,3.40
2023-01-04T12:39:12.766Z,3.00
2023-01-04T12:41:39.259Z,2.50
2023-01-04T12:44:40.374Z,3.27
2023-01-04T12:47:37.667Z,2.50
2023-01-04T12:50:17.079Z,3.17
2023-01-04T12:53:19.503Z,3.70
2023-01-04T12:55:45.790Z,2.73
2023-01-04T12:58:42.378Z,4.27
2023-01-04T13:01:29.484Z,5.03
2023-01-04T13:04:05.666Z,4.30
2023-01-04T13:06:37.059Z,3.23
2023-01-04T13:09:06.133Z,2.90
2023-01-04T13:12:03.643Z,4.07
2023-01-04T13:14:39.063Z,4.10
2023-01-04T13:17:14.169Z,2.67
2023-01-04T13:19:45.815Z,3.20
2023-01-04T13:22:29.560Z,2.07
2023-01-04T13:24:58.414Z,2.70
2023-01-04T13:27:28.182Z,3.83
2023-01-04T13:29:55.329Z,3.20
2023-01-04T13:32:26.712Z,3.43
2023-01-04T13:34:55.240Z,3.97
2023-01-04T13:37:37.536Z,4.13
2023-01-04T13:40:23.914Z,4.87
2023-01-04T13:43:15.582Z,4.40
2023-01-04T13:46:02.075Z,5.33
2023-01-04T13:48:41.378Z,3.80
2023-01-04T13:51:18.310Z,2.80
2023-01-04T13:53:55.780Z,3.43
2023-01-04T13:56:25.988Z,4.10
2023-01-04T13:58:54.237Z,3.10
2023-01-04T14:01:35.668Z,2.70
2023-01-04T14:04:05.278Z,2.77
2023-01-04T14:06:46.869Z,2.70
2023-01-04T14:09:16.124Z,3.17
2023-01-04T14:12:09.580Z,3.40
2023-01-04T14:14:47.227Z,3.30
2023-01-04T14:17:23.207Z,3.40
2023-01-04T14:19:58.690Z,3.63
2023-01-04T14:22:25.719Z,3.70
2023-01-04T14:25:21.064Z,3.80
2023-01-04T14:27:47.793Z,4.03
2023-01-04T14:30:37.447Z,3.40
2023-01-04T14:33:15.754Z,3.37
2023-01-04T14:35:47.625Z,3.13
2023-01-04T14:38:18.804Z,3.47
2023-01-04T14:40:45.938Z,3.67
2023-01-04T14:44:00.817Z,4.10
2023-01-04T14:46:32.669Z,4.03
2023-01-04T14:49:00.838Z,3.67
2023-01-04T14:51:38.868Z,3.67
2023-01-04T14:54:06.577Z,2.70
2023-01-04T14:56:34.225Z,3.20
2023-01-04T14:59:03.284Z,3.60
2023-01-04T15:01:30.621Z,3.30
2023-01-04T15:03:57.578Z,3.40
2023-01-04T15:06:25.669Z,3.10
2023-01-04T15:08:52.765Z,2.97
2023-01-04T15:11:21.172Z,4.50
2023-01-04T15:13:48.470Z,3.73
2023-01-04T15:16:17.707Z,3.33
2023-01-04T15:18:45.548Z,4.30
2023-01-04T15:21:13.585Z,4.63
2023-01-04T15:23:40.660Z,3.00
2023-01-04T15:26:12.771Z,3.40
2023-01-04T15:28:39.667Z,3.47
2023-01-04T15:31:11.832Z,3.50
2023-01-04T15:33:38.918Z,4.03
2023-01-04T15:36:09.413Z,4.70
2023-01-04T15:38:35.993Z,3.13
2023-01-04T15:41:09.277Z,2.70
2023-01-04T15:43:38.705Z,3.20
2023-01-04T15:46:08.790Z,3.50
2023-01-04T15:48:36.353Z,4.83
2023-01-04T15:51:10.531Z,5.00
2023-01-04T15:53:38.526Z,4.17
2023-01-04T15:56:08.261Z,3.50
2023-01-04T15:58:36.775Z,3.43
2023-01-04T16:01:15.371Z,3.33
2023-01-04T16:03:42.199Z,2.80
2023-01-04T16:06:11.956Z,3.57
2023-01-04T16:08:42.012Z,3.87
2023-01-04T16:11:18.336Z,3.30
2023-01-04T16:13:47.533Z,4.00
2023-01-04T16:16:21.469Z,4.10
2023-01-04T16:18:52.609Z,4.13
2023-01-04T16:21:31.983Z,5.00
2023-01-04T16:24:09.349Z,3.10
2023-01-04T16:26:48.667Z,4.13
2023-01-04T16:29:16.727Z,3.47
2023-01-04T16:31:45.892Z,3.80
2023-01-04T16:34:14.885Z,3.10
2023-01-04T16:36:42.655Z,3.00
2023-01-04T16:39:10.219Z,4.10
2023-01-04T16:41:36.849Z,3.67
2023-01-04T16:44:05.545Z,3.70
2023-01-04T16:46:37.758Z,3.60
2023-01-04T16:49:10.878Z,3.17
2023-01-04T16:51:39.077Z,3.13
2023-01-04T16:54:08.981Z,3.23
2023-01-04T16:56:46.241Z,3.80
2023-01-04T16:59:26.457Z,3.67
2023-01-04T17:01:58.105Z,3.30
2023-01-04T17:04:27.969Z,2.63
2023-01-04T17:06:58.414Z,3.17
2023-01-04T17:09:28.290Z,3.67
2023-01-04T17:15:00.773Z,3.00
2023-01-04T17:17:35.527Z,3.57
2023-01-04T17:20:04.748Z,3.87
2023-01-04T17:22:34.514Z,2.70
2023-01-04T17:25:01.983Z,3.03
2023-01-04T17:27:29.701Z,3.50
2023-01-04T17:29:57.264Z,3.53
2023-01-04T17:32:23.910Z,3.33
2023-01-04T17:34:50.855Z,3.07
2023-01-04T17:37:17.926Z,2.80
2023-01-04T17:39:46.211Z,3.83
2023-01-04T17:42:17.279Z,4.13
2023-01-04T17:44:44.279Z,3.07
2023-01-04T17:47:13.438Z,3.70
2023-01-04T17:49:41.315Z,3.83
2023-01-04T17:52:10.366Z,3.50
2023-01-04T17:54:40.294Z,3.20
2023-01-04T17:57:07.303Z,4.13
2023-01-04T17:59:33.956Z,3.13
2023-01-04T18:02:00.691Z,3.70
2023-01-04T18:04:30.154Z,4.00
2023-01-04T18:06:57.072Z,3.87
2023-01-04T18:09:28.526Z,3.40
2023-01-04T18:11:55.292Z,4.20
2023-01-04T18:14:25.126Z,3.63
2023-01-04T18:16:59.458Z,3.43
2023-01-04T18:19:32.095Z,3.27
2023-01-04T18:22:00.792Z,3.33
2023-01-04T18:24:36.661Z,3.00
2023-01-04T18:27:23.573Z,3.37
2023-01-04T18:29:55.746Z,3.60
2023-01-04T18:32:25.042Z,3.13
2023-01-04T18:34:51.829Z,3.77
2023-01-04T18:37:19.991Z,2.83
2023-01-04T18:39:48.191Z,3.50
2023-01-04T18:42:15.124Z,3.10
2023-01-04T18:44:47.804Z,3.00
2023-01-04T18:47:16.316Z,3.23
2023-01-04T18:49:42.970Z,2.97
2023-01-04T18:52:10.999Z,2.83
2023-01-04T18:54:39.469Z,3.30
2023-01-04T18:57:06.722Z,3.20
2023-01-04T18:59:34.538Z,2.90
2023-01-04T19:02:04.339Z,2.80
2023-01-04T19:04:34.654Z,3.03
2023-01-04T19:07:03.198Z,3.03
2023-01-04T19:09:34.284Z,3.33
2023-01-04T19:12:01.537Z,3.80
2023-01-04T19:14:30.456Z,3.33
2023-01-04T19:16:57.188Z,5.10
2023-01-04T19:19:26.609Z,4.30
2023-01-04T19:21:54.459Z,3.47
2023-01-04T19:24:21.436Z,3.87
2023-01-04T19:26:47.917Z,3.90
2023-01-04T19:29:20.063Z,3.37
2023-01-04T19:31:47.615Z,3.57
2023-01-04T19:34:15.113Z,3.27
2023-01-04T19:36:44.398Z,2.90
2023-01-04T19:39:12.266Z,3.80
2023-01-04T19:41:39.735Z,3.70
2023-01-04T19:44:08.499Z,3.27
2023-01-04T19:46:38.263Z,3.13
2023-01-04T19:49:09.453Z,3.27
2023-01-04T19:51:43.943Z,4.70
2023-01-04T19:54:11.107Z,3.20
2023-01-04T19:56:39.880Z,3.30
2023-01-04T19:59:07.602Z,3.53
2023-01-04T20:01:35.522Z,3.20
2023-01-04T20:04:02.840Z,5.90
2023-01-04T20:06:32.471Z,6.10
2023-01-04T20:09:02.876Z,6.80
2023-01-04T20:11:29.542Z,5.60
2023-01-04T20:13:58.158Z,4.43
2023-01-04T20:16:27.441Z,3.47
2023-01-04T20:18:58.228Z,2.80
2023-01-04T20:21:27.314Z,3.47
2023-01-04T20:23:54.467Z,3.63
2023-01-04T20:26:21.671Z,3.20
2023-01-04T20:28:50.002Z,3.83
2023-01-04T20:31:19.335Z,3.10
2023-01-04T20:33:50.379Z,2.87
2023-01-04T20:36:22.219Z,3.00
2023-01-04T20:38:50.242Z,3.37
2023-01-04T20:41:23.455Z,2.40
2023-01-04T20:43:53.219Z,2.97
2023-01-04T20:46:23.545Z,3.10
2023-01-04T20:48:50.649Z,3.10
2023-01-04T20:51:25.617Z,2.83
2023-01-04T20:53:52.920Z,3.53
2023-01-04T20:56:24.763Z,3.60
2023-01-04T20:58:54.369Z,4.17
2023-01-04T21:01:26.357Z,4.10
2023-01-04T21:03:53.370Z,3.70
2023-01-04T21:06:23.301Z,3.83
2023-01-04T21:08:55.703Z,5.20
2023-01-04T21:11:22.993Z,9.03
2023-01-04T21:13:52.171Z,8.23
2023-01-04T21:16:19.262Z,4.57
2023-01-04T21:18:46.057Z,3.60
2023-01-04T21:21:15.783Z,3.27
2023-01-04T21:23:46.192Z,3.30
2023-01-04T21:26:16.875Z,3.50
2023-01-04T21:28:47.150Z,3.83
2023-01-04T21:31:22.150Z,3.20
2023-01-04T21:33:49.038Z,3.37
2023-01-04T21:36:26.714Z,3.30
2023-01-04T21:38:56.653Z,3.33
2023-01-04T21:41:25.547Z,3.50
2023-01-04T21:43:55.567Z,4.00
2023-01-04T21:46:25.049Z,4.07
2023-01-04T21:48:57.581Z,3.70
2023-01-04T21:51:26.799Z,3.10
2023-01-04T21:53:55.435Z,3.50
2023-01-04T21:56:24.389Z,4.67
2023-01-04T21:58:51.121Z,3.60
2023-01-04T22:01:23.743Z,3.70
2023-01-04T22:03:52.371Z,3.07
2023-01-04T22:06:21.344Z,3.77
2023-01-04T22:08:49.801Z,3.60
2023-01-04T22:11:17.263Z,4.23
2023-01-04T22:13:46.437Z,3.60
2023-01-04T22:16:17.274Z,2.57
2023-01-04T22:18:53.254Z,3.90
2023-01-04T22:21:26.199Z,3.23
2023-01-04T22:23:54.413Z,3.27
2023-01-04T22:26:24.424Z,3.37
2023-01-04T22:28:53.104Z,3.87
2023-01-04T22:31:20.135Z,3.60
2023-01-04T22:33:47.886Z,3.23
2023-01-04T22:36:22.205Z,3.40
2023-01-04T22:38:51.398Z,3.70
2023-01-04T22:41:19.526Z,2.93
2023-01-04T22:43:47.672Z,3.37
2023-01-04T22:46:17.736Z,3.40
2023-01-04T22:48:46.752Z,2.80
2023-01-04T22:51:16.924Z,3.00
2023-01-04T22:53:45.808Z,3.90
2023-01-04T22:56:20.760Z,2.67
2023-01-04T22:58:56.139Z,2.50
2023-01-04T23:01:28.843Z,3.33
2023-01-04T23:03:55.879Z,3.00
2023-01-04T23:06:24.158Z,3.10
2023-01-04T23:09:01.370Z,3.07
2023-01-04T23:11:30.431Z,3.80
2023-01-04T23:14:03.108Z,3.50
2023-01-04T23:16:33.819Z,3.00
2023-01-04T23:19:05.251Z,3.20
2023-01-04T23:21:34.932Z,3.20
2023-01-04T23:24:02.561Z,2.70
2023-01-04T23:26:32.670Z,3.53
2023-01-04T23:29:00.889Z,3.50
2023-01-04T23:31:32.353Z,3.20
2023-01-04T23:34:03.844Z,3.23
2023-01-04T23:36:33.543Z,2.90
2023-01-04T23:39:05.546Z,4.20
2023-01-04T23:41:45.176Z,3.03
2023-01-04T23:44:33.009Z,2.80
2023-01-04T23:49:33.646Z,3.23
2023-01-04T23:52:02.956Z,2.90
2023-01-04T23:54:37.118Z,3.40
2023-01-04T23:57:04.850Z,2.73
2023-01-04T23:59:31.538Z,2.80
